sensor_id;sensor_type;location;lat;lon;timestamp;temperature;humidity
2226;DHT22;1119;48.288;8.726;2022-09-04T00:01:40;16.00;99.90
2226;DHT22;1119;48.288;8.726;2022-09-04T00:04:18;16.00;99.90
2226;DHT22;1119;48.288;8.726;2022-09-04T00:06:57;16.00;99.90
2226;DHT22;1119;48.288;8.726;2022-09-04T00:09:35;16.00;99.90
2226;DHT22;1119;48.288;8.726;2022-09-04T00:12:07;16.00;99.90
2226;DHT22;1119;48.288;8.726;2022-09-04T00:14:40;16.00;99.90
2226;DHT22;1119;48.288;8.726;2022-09-04T00:17:15;16.00;99.90
2226;DHT22;1119;48.288;8.726;2022-09-04T00:19:49;16.10;99.90
2226;DHT22;1119;48.288;8.726;2022-09-04T00:22:28;16.00;99.90
2226;DHT22;1119;48.288;8.726;2022-09-04T00:27:51;16.10;99.90
2226;DHT22;1119;48.288;8.726;2022-09-04T00:30:22;16.00;99.90
2226;DHT22;1119;48.288;8.726;2022-09-04T00:32:56;16.00;99.90
2226;DHT22;1119;48.288;8.726;2022-09-04T00:35:28;16.00;99.90
2226;DHT22;1119;48.288;8.726;2022-09-04T00:38:00;16.00;99.90
2226;DHT22;1119;48.288;8.726;2022-09-04T00:40:31;16.00;99.90
2226;DHT22;1119;48.288;8.726;2022-09-04T00:46:58;16.00;99.90
2226;DHT22;1119;48.288;8.726;2022-09-04T00:49:44;16.00;99.90
2226;DHT22;1119;48.288;8.726;2022-09-04T00:52:37;15.90;99.90
2226;DHT22;1119;48.288;8.726;2022-09-04T00:55:26;15.90;99.90
2226;DHT22;1119;48.288;8.726;2022-09-04T00:58:11;15.80;99.90
2226;DHT22;1119;48.288;8.726;2022-09-04T01:00:45;15.80;99.90
2226;DHT22;1119;48.288;8.726;2022-09-04T01:03:51;15.80;99.90
2226;DHT22;1119;48.288;8.726;2022-09-04T01:06:33;15.80;99.90
2226;DHT22;1119;48.288;8.726;2022-09-04T01:09:22;15.80;99.90
2226;DHT22;1119;48.288;8.726;2022-09-04T01:12:07;15.80;99.90
2226;DHT22;1119;48.288;8.726;2022-09-04T01:14:49;15.70;99.90
2226;DHT22;1119;48.288;8.726;2022-09-04T01:17:25;15.70;99.90
2226;DHT22;1119;48.288;8.726;2022-09-04T01:20:05;15.60;99.90
2226;DHT22;1119;48.288;8.726;2022-09-04T01:23:00;15.60;99.90
2226;DHT22;1119;48.288;8.726;2022-09-04T01:25:59;15.50;99.90
2226;DHT22;1119;48.288;8.726;2022-09-04T01:28:35;15.50;99.90
2226;DHT22;1119;48.288;8.726;2022-09-04T01:31:21;15.40;99.90
2226;DHT22;1119;48.288;8.726;2022-09-04T01:33:59;15.40;99.90
2226;DHT22;1119;48.288;8.726;2022-09-04T01:36:37;15.30;99.90
2226;DHT22;1119;48.288;8.726;2022-09-04T01:39:07;15.30;99.90
2226;DHT22;1119;48.288;8.726;2022-09-04T01:41:39;15.20;99.90
2226;DHT22;1119;48.288;8.726;2022-09-04T01:44:10;15.20;99.90
2226;DHT22;1119;48.288;8.726;2022-09-04T01:46:44;15.20;99.90
2226;DHT22;1119;48.288;8.726;2022-09-04T01:49:24;15.20;99.90
2226;DHT22;1119;48.288;8.726;2022-09-04T01:52:02;15.20;99.90
2226;DHT22;1119;48.288;8.726;2022-09-04T01:54:48;15.20;99.90
2226;DHT22;1119;48.288;8.726;2022-09-04T01:57:42;15.10;99.90
2226;DHT22;1119;48.288;8.726;2022-09-04T02:00:19;15.20;99.90
2226;DHT22;1119;48.288;8.726;2022-09-04T02:02:59;15.20;99.90
2226;DHT22;1119;48.288;8.726;2022-09-04T02:05:46;15.20;99.90
2226;DHT22;1119;48.288;8.726;2022-09-04T02:08:38;15.30;99.90
2226;DHT22;1119;48.288;8.726;2022-09-04T02:11:15;15.30;99.90
2226;DHT22;1119;48.288;8.726;2022-09-04T02:16:54;15.30;99.90
2226;DHT22;1119;48.288;8.726;2022-09-04T02:19:35;15.30;99.90
2226;DHT22;1119;48.288;8.726;2022-09-04T02:22:15;15.40;99.90
2226;DHT22;1119;48.288;8.726;2022-09-04T02:24:55;15.30;99.90
2226;DHT22;1119;48.288;8.726;2022-09-04T02:27:33;15.40;99.90
2226;DHT22;1119;48.288;8.726;2022-09-04T02:30:06;15.40;99.90
2226;DHT22;1119;48.288;8.726;2022-09-04T02:32:37;15.40;99.90
2226;DHT22;1119;48.288;8.726;2022-09-04T02:35:13;15.40;99.90
2226;DHT22;1119;48.288;8.726;2022-09-04T02:37:52;15.30;99.90
2226;DHT22;1119;48.288;8.726;2022-09-04T02:40:30;15.40;99.90
2226;DHT22;1119;48.288;8.726;2022-09-04T02:43:11;15.30;99.90
2226;DHT22;1119;48.288;8.726;2022-09-04T02:45:57;15.30;99.90
2226;DHT22;1119;48.288;8.726;2022-09-04T02:48:32;15.30;99.90
2226;DHT22;1119;48.288;8.726;2022-09-04T02:51:17;15.20;99.90
2226;DHT22;1119;48.288;8.726;2022-09-04T02:53:58;15.20;99.90
2226;DHT22;1119;48.288;8.726;2022-09-04T02:56:37;15.20;99.90
2226;DHT22;1119;48.288;8.726;2022-09-04T02:59:19;15.10;99.90
2226;DHT22;1119;48.288;8.726;2022-09-04T03:01:57;15.20;99.90
2226;DHT22;1119;48.288;8.726;2022-09-04T03:04:32;15.10;99.90
2226;DHT22;1119;48.288;8.726;2022-09-04T03:07:08;15.10;99.90
2226;DHT22;1119;48.288;8.726;2022-09-04T03:09:41;15.00;99.90
2226;DHT22;1119;48.288;8.726;2022-09-04T03:12:26;15.00;99.90
2226;DHT22;1119;48.288;8.726;2022-09-04T03:15:02;15.00;99.90
2226;DHT22;1119;48.288;8.726;2022-09-04T03:17:42;15.00;99.90
2226;DHT22;1119;48.288;8.726;2022-09-04T03:20:17;15.00;99.90
2226;DHT22;1119;48.288;8.726;2022-09-04T03:22:51;15.10;99.90
2226;DHT22;1119;48.288;8.726;2022-09-04T03:25:49;15.10;99.90
2226;DHT22;1119;48.288;8.726;2022-09-04T03:28:27;15.10;99.90
2226;DHT22;1119;48.288;8.726;2022-09-04T03:31:04;15.10;99.90
2226;DHT22;1119;48.288;8.726;2022-09-04T03:33:42;15.10;99.90
2226;DHT22;1119;48.288;8.726;2022-09-04T03:36:18;15.10;99.90
2226;DHT22;1119;48.288;8.726;2022-09-04T03:38:56;15.10;99.90
2226;DHT22;1119;48.288;8.726;2022-09-04T03:41:38;15.10;99.90
2226;DHT22;1119;48.288;8.726;2022-09-04T03:44:16;15.10;99.90
2226;DHT22;1119;48.288;8.726;2022-09-04T03:46:59;15.10;99.90
2226;DHT22;1119;48.288;8.726;2022-09-04T03:49:39;15.10;99.90
2226;DHT22;1119;48.288;8.726;2022-09-04T03:52:17;15.10;99.90
2226;DHT22;1119;48.288;8.726;2022-09-04T03:54:57;15.00;99.90
2226;DHT22;1119;48.288;8.726;2022-09-04T03:57:56;15.10;99.90
2226;DHT22;1119;48.288;8.726;2022-09-04T04:00:35;15.10;99.90
2226;DHT22;1119;48.288;8.726;2022-09-04T04:03:24;15.10;99.90
2226;DHT22;1119;48.288;8.726;2022-09-04T04:06:20;15.00;99.90
2226;DHT22;1119;48.288;8.726;2022-09-04T04:09:07;15.00;99.90
2226;DHT22;1119;48.288;8.726;2022-09-04T04:11:53;15.00;99.90
2226;DHT22;1119;48.288;8.726;2022-09-04T04:15:06;15.00;99.90
2226;DHT22;1119;48.288;8.726;2022-09-04T04:18:02;15.00;99.90
2226;DHT22;1119;48.288;8.726;2022-09-04T04:20:43;14.90;99.90
2226;DHT22;1119;48.288;8.726;2022-09-04T04:24:03;14.90;99.90
2226;DHT22;1119;48.288;8.726;2022-09-04T04:26:52;14.90;99.90
2226;DHT22;1119;48.288;8.726;2022-09-04T04:29:47;14.80;99.90
2226;DHT22;1119;48.288;8.726;2022-09-04T04:32:31;14.80;99.90
2226;DHT22;1119;48.288;8.726;2022-09-04T04:35:13;14.80;99.90
2226;DHT22;1119;48.288;8.726;2022-09-04T04:37:54;14.80;99.90
2226;DHT22;1119;48.288;8.726;2022-09-04T04:40:45;14.80;99.90
2226;DHT22;1119;48.288;8.726;2022-09-04T04:43:21;14.80;99.90
2226;DHT22;1119;48.288;8.726;2022-09-04T04:45:58;14.80;99.90
2226;DHT22;1119;48.288;8.726;2022-09-04T04:52:14;14.80;99.90
2226;DHT22;1119;48.288;8.726;2022-09-04T04:54:59;14.70;99.90
2226;DHT22;1119;48.288;8.726;2022-09-04T04:57:39;14.80;99.90
2226;DHT22;1119;48.288;8.726;2022-09-04T05:00:12;14.80;99.90
2226;DHT22;1119;48.288;8.726;2022-09-04T05:02:55;14.90;99.90
2226;DHT22;1119;48.288;8.726;2022-09-04T05:05:45;15.00;99.90
2226;DHT22;1119;48.288;8.726;2022-09-04T05:08:26;15.10;99.90
2226;DHT22;1119;48.288;8.726;2022-09-04T05:11:05;15.10;99.90
2226;DHT22;1119;48.288;8.726;2022-09-04T05:13:40;15.20;99.90
2226;DHT22;1119;48.288;8.726;2022-09-04T05:16:19;15.20;99.90
2226;DHT22;1119;48.288;8.726;2022-09-04T05:18:56;15.30;99.90
2226;DHT22;1119;48.288;8.726;2022-09-04T05:21:30;15.30;99.90
2226;DHT22;1119;48.288;8.726;2022-09-04T05:24:04;15.20;99.90
2226;DHT22;1119;48.288;8.726;2022-09-04T05:26:40;15.20;99.90
2226;DHT22;1119;48.288;8.726;2022-09-04T05:29:18;15.20;99.90
2226;DHT22;1119;48.288;8.726;2022-09-04T05:31:53;15.10;99.90
2226;DHT22;1119;48.288;8.726;2022-09-04T05:34:34;15.10;99.90
2226;DHT22;1119;48.288;8.726;2022-09-04T05:37:18;15.20;99.90
2226;DHT22;1119;48.288;8.726;2022-09-04T05:39:57;15.30;99.90
2226;DHT22;1119;48.288;8.726;2022-09-04T05:42:42;15.20;99.90
2226;DHT22;1119;48.288;8.726;2022-09-04T05:45:22;15.20;99.90
2226;DHT22;1119;48.288;8.726;2022-09-04T05:48:00;15.30;99.90
2226;DHT22;1119;48.288;8.726;2022-09-04T05:54:04;17.10;99.90
2226;DHT22;1119;48.288;8.726;2022-09-04T05:57:05;19.10;99.90
2226;DHT22;1119;48.288;8.726;2022-09-04T06:00:05;21.00;99.90
2226;DHT22;1119;48.288;8.726;2022-09-04T06:03:20;22.70;99.50
2226;DHT22;1119;48.288;8.726;2022-09-04T06:06:14;24.10;94.90
2226;DHT22;1119;48.288;8.726;2022-09-04T06:09:05;25.30;91.50
2226;DHT22;1119;48.288;8.726;2022-09-04T06:12:10;26.30;85.90
2226;DHT22;1119;48.288;8.726;2022-09-04T06:14:58;27.20;79.00
2226;DHT22;1119;48.288;8.726;2022-09-04T06:17:38;27.80;75.00
2226;DHT22;1119;48.288;8.726;2022-09-04T06:20:34;28.20;71.10
2226;DHT22;1119;48.288;8.726;2022-09-04T06:23:27;28.40;68.80
2226;DHT22;1119;48.288;8.726;2022-09-04T06:26:38;28.60;66.10
2226;DHT22;1119;48.288;8.726;2022-09-04T06:29:36;28.80;64.40
2226;DHT22;1119;48.288;8.726;2022-09-04T06:32:29;29.20;62.80
2226;DHT22;1119;48.288;8.726;2022-09-04T06:35:25;29.60;61.00
2226;DHT22;1119;48.288;8.726;2022-09-04T06:38:11;30.40;58.90
2226;DHT22;1119;48.288;8.726;2022-09-04T06:40:47;31.30;56.60
2226;DHT22;1119;48.288;8.726;2022-09-04T06:43:23;31.90;54.60
2226;DHT22;1119;48.288;8.726;2022-09-04T06:45:59;32.30;53.10
2226;DHT22;1119;48.288;8.726;2022-09-04T06:48:37;32.60;52.30
2226;DHT22;1119;48.288;8.726;2022-09-04T06:51:16;32.80;51.40
2226;DHT22;1119;48.288;8.726;2022-09-04T06:53:56;33.20;50.70
2226;DHT22;1119;48.288;8.726;2022-09-04T06:56:40;33.40;50.30
2226;DHT22;1119;48.288;8.726;2022-09-04T07:02:22;33.70;48.90
2226;DHT22;1119;48.288;8.726;2022-09-04T07:05:04;34.00;48.40
2226;DHT22;1119;48.288;8.726;2022-09-04T07:07:44;34.30;47.70
2226;DHT22;1119;48.288;8.726;2022-09-04T07:10:19;34.40;47.30
2226;DHT22;1119;48.288;8.726;2022-09-04T07:13:19;34.50;46.80
2226;DHT22;1119;48.288;8.726;2022-09-04T07:16:08;34.70;46.40
2226;DHT22;1119;48.288;8.726;2022-09-04T07:18:56;34.90;46.10
2226;DHT22;1119;48.288;8.726;2022-09-04T07:21:43;34.90;45.60
2226;DHT22;1119;48.288;8.726;2022-09-04T07:27:16;35.10;45.30
2226;DHT22;1119;48.288;8.726;2022-09-04T07:29:50;35.30;44.90
2226;DHT22;1119;48.288;8.726;2022-09-04T07:32:27;35.40;44.30
2226;DHT22;1119;48.288;8.726;2022-09-04T07:34:58;35.30;44.50
2226;DHT22;1119;48.288;8.726;2022-09-04T07:37:32;35.00;44.90
2226;DHT22;1119;48.288;8.726;2022-09-04T07:40:08;34.80;45.00
2226;DHT22;1119;48.288;8.726;2022-09-04T07:42:47;34.90;44.70
2226;DHT22;1119;48.288;8.726;2022-09-04T07:45:33;34.70;44.90
2226;DHT22;1119;48.288;8.726;2022-09-04T07:48:14;34.50;45.90
2226;DHT22;1119;48.288;8.726;2022-09-04T07:50:57;34.30;46.10
2226;DHT22;1119;48.288;8.726;2022-09-04T07:56:56;33.80;47.30
2226;DHT22;1119;48.288;8.726;2022-09-04T07:59:46;33.80;46.50
2226;DHT22;1119;48.288;8.726;2022-09-04T08:02:46;33.70;46.20
2226;DHT22;1119;48.288;8.726;2022-09-04T08:05:23;33.40;46.60
2226;DHT22;1119;48.288;8.726;2022-09-04T08:08:23;33.20;47.60
2226;DHT22;1119;48.288;8.726;2022-09-04T08:11:13;32.90;47.30
2226;DHT22;1119;48.288;8.726;2022-09-04T08:14:03;32.60;47.90
2226;DHT22;1119;48.288;8.726;2022-09-04T08:16:49;32.20;48.50
2226;DHT22;1119;48.288;8.726;2022-09-04T08:19:32;32.00;48.80
2226;DHT22;1119;48.288;8.726;2022-09-04T08:22:11;31.60;49.60
2226;DHT22;1119;48.288;8.726;2022-09-04T08:24:53;31.40;50.10
2226;DHT22;1119;48.288;8.726;2022-09-04T08:27:43;31.00;51.70
2226;DHT22;1119;48.288;8.726;2022-09-04T08:30:33;30.40;51.40
2226;DHT22;1119;48.288;8.726;2022-09-04T08:33:40;30.10;52.30
2226;DHT22;1119;48.288;8.726;2022-09-04T08:36:32;29.80;53.60
2226;DHT22;1119;48.288;8.726;2022-09-04T08:39:05;29.30;53.80
2226;DHT22;1119;48.288;8.726;2022-09-04T08:45:39;28.20;54.80
2226;DHT22;1119;48.288;8.726;2022-09-04T08:48:53;27.50;56.20
2226;DHT22;1119;48.288;8.726;2022-09-04T08:55:20;26.10;60.90
2226;DHT22;1119;48.288;8.726;2022-09-04T08:58:31;26.20;62.80
2226;DHT22;1119;48.288;8.726;2022-09-04T09:01:56;26.30;61.40
2226;DHT22;1119;48.288;8.726;2022-09-04T09:11:51;26.30;62.50
2226;DHT22;1119;48.288;8.726;2022-09-04T09:15:07;26.10;61.30
2226;DHT22;1119;48.288;8.726;2022-09-04T09:17:58;26.10;61.70
2226;DHT22;1119;48.288;8.726;2022-09-04T09:20:30;26.10;62.40
2226;DHT22;1119;48.288;8.726;2022-09-04T09:23:19;26.10;63.60
2226;DHT22;1119;48.288;8.726;2022-09-04T09:26:17;26.20;62.40
2226;DHT22;1119;48.288;8.726;2022-09-04T09:29:26;26.30;60.90
2226;DHT22;1119;48.288;8.726;2022-09-04T09:38:55;26.60;59.30
2226;DHT22;1119;48.288;8.726;2022-09-04T09:42:05;26.60;59.20
2226;DHT22;1119;48.288;8.726;2022-09-04T09:45:06;26.50;59.60
2226;DHT22;1119;48.288;8.726;2022-09-04T09:48:24;26.50;59.90
2226;DHT22;1119;48.288;8.726;2022-09-04T09:51:35;26.90;57.70
2226;DHT22;1119;48.288;8.726;2022-09-04T09:54:31;27.20;54.50
2226;DHT22;1119;48.288;8.726;2022-09-04T10:00:14;27.80;51.90
2226;DHT22;1119;48.288;8.726;2022-09-04T10:09:45;27.80;51.60
2226;DHT22;1119;48.288;8.726;2022-09-04T10:13:06;28.10;51.80
2226;DHT22;1119;48.288;8.726;2022-09-04T10:19:26;28.00;50.30
2226;DHT22;1119;48.288;8.726;2022-09-04T10:22:42;27.80;47.70
2226;DHT22;1119;48.288;8.726;2022-09-04T10:35:23;27.90;48.80
2226;DHT22;1119;48.288;8.726;2022-09-04T10:38:10;27.90;49.50
2226;DHT22;1119;48.288;8.726;2022-09-04T10:44:35;27.50;49.50
2226;DHT22;1119;48.288;8.726;2022-09-04T10:47:18;27.30;51.30
2226;DHT22;1119;48.288;8.726;2022-09-04T10:53:21;27.30;50.70
2226;DHT22;1119;48.288;8.726;2022-09-04T10:56:09;27.30;46.50
2226;DHT22;1119;48.288;8.726;2022-09-04T11:02:13;27.10;47.10
2226;DHT22;1119;48.288;8.726;2022-09-04T11:05:12;27.10;47.10
2226;DHT22;1119;48.288;8.726;2022-09-04T11:11:01;26.80;47.80
2226;DHT22;1119;48.288;8.726;2022-09-04T11:17:14;26.60;47.20
2226;DHT22;1119;48.288;8.726;2022-09-04T11:24:06;26.70;48.40
2226;DHT22;1119;48.288;8.726;2022-09-04T11:30:17;26.90;47.60
2226;DHT22;1119;48.288;8.726;2022-09-04T11:33:18;27.00;48.90
2226;DHT22;1119;48.288;8.726;2022-09-04T11:36:32;27.10;48.30
2226;DHT22;1119;48.288;8.726;2022-09-04T11:42:42;27.30;46.50
2226;DHT22;1119;48.288;8.726;2022-09-04T11:45:54;27.30;45.80
2226;DHT22;1119;48.288;8.726;2022-09-04T11:49:06;27.50;47.80
2226;DHT22;1119;48.288;8.726;2022-09-04T11:58:15;27.30;45.60
2226;DHT22;1119;48.288;8.726;2022-09-04T12:00:55;27.20;45.60
2226;DHT22;1119;48.288;8.726;2022-09-04T12:03:42;27.20;47.10
2226;DHT22;1119;48.288;8.726;2022-09-04T12:06:38;27.20;47.70
2226;DHT22;1119;48.288;8.726;2022-09-04T12:09:39;27.40;46.30
2226;DHT22;1119;48.288;8.726;2022-09-04T12:12:45;27.50;46.20
2226;DHT22;1119;48.288;8.726;2022-09-04T12:15:47;27.70;45.50
2226;DHT22;1119;48.288;8.726;2022-09-04T12:18:43;27.60;46.00
2226;DHT22;1119;48.288;8.726;2022-09-04T12:25:20;27.60;44.30
2226;DHT22;1119;48.288;8.726;2022-09-04T12:28:23;27.90;45.30
2226;DHT22;1119;48.288;8.726;2022-09-04T12:31:16;28.10;44.60
2226;DHT22;1119;48.288;8.726;2022-09-04T12:34:13;28.40;44.10
2226;DHT22;1119;48.288;8.726;2022-09-04T12:37:24;28.50;43.40
2226;DHT22;1119;48.288;8.726;2022-09-04T12:40:11;28.70;43.50
2226;DHT22;1119;48.288;8.726;2022-09-04T12:42:54;28.90;43.10
2226;DHT22;1119;48.288;8.726;2022-09-04T12:45:33;28.90;43.70
2226;DHT22;1119;48.288;8.726;2022-09-04T12:48:14;28.60;43.30
2226;DHT22;1119;48.288;8.726;2022-09-04T12:50:49;28.50;43.50
2226;DHT22;1119;48.288;8.726;2022-09-04T12:56:43;28.20;42.70
2226;DHT22;1119;48.288;8.726;2022-09-04T12:59:38;28.00;43.60
2226;DHT22;1119;48.288;8.726;2022-09-04T13:02:19;27.60;44.60
2226;DHT22;1119;48.288;8.726;2022-09-04T13:04:59;27.30;44.60
2226;DHT22;1119;48.288;8.726;2022-09-04T13:07:47;27.30;44.90
2226;DHT22;1119;48.288;8.726;2022-09-04T13:10:23;27.10;46.00
2226;DHT22;1119;48.288;8.726;2022-09-04T13:13:06;27.00;46.90
2226;DHT22;1119;48.288;8.726;2022-09-04T13:15:50;27.10;48.70
2226;DHT22;1119;48.288;8.726;2022-09-04T13:18:32;27.30;46.60
2226;DHT22;1119;48.288;8.726;2022-09-04T13:21:21;27.40;45.20
2226;DHT22;1119;48.288;8.726;2022-09-04T13:24:10;27.50;44.90
2226;DHT22;1119;48.288;8.726;2022-09-04T13:26:56;27.60;45.30
2226;DHT22;1119;48.288;8.726;2022-09-04T13:29:34;27.70;43.50
2226;DHT22;1119;48.288;8.726;2022-09-04T13:35:49;27.50;45.00
2226;DHT22;1119;48.288;8.726;2022-09-04T13:38:44;27.50;45.30
2226;DHT22;1119;48.288;8.726;2022-09-04T13:45:01;27.50;46.50
2226;DHT22;1119;48.288;8.726;2022-09-04T13:47:38;27.70;46.70
2226;DHT22;1119;48.288;8.726;2022-09-04T13:50:17;27.90;44.80
2226;DHT22;1119;48.288;8.726;2022-09-04T13:52:50;27.70;43.20
2226;DHT22;1119;48.288;8.726;2022-09-04T13:55:22;27.70;44.10
2226;DHT22;1119;48.288;8.726;2022-09-04T13:57:55;27.70;44.40
2226;DHT22;1119;48.288;8.726;2022-09-04T14:00:28;27.70;44.00
2226;DHT22;1119;48.288;8.726;2022-09-04T14:03:02;27.70;43.40
2226;DHT22;1119;48.288;8.726;2022-09-04T14:05:33;27.60;44.00
2226;DHT22;1119;48.288;8.726;2022-09-04T14:08:05;27.60;44.70
2226;DHT22;1119;48.288;8.726;2022-09-04T14:10:56;27.70;44.50
2226;DHT22;1119;48.288;8.726;2022-09-04T14:13:40;27.70;42.90
2226;DHT22;1119;48.288;8.726;2022-09-04T14:16:16;27.70;43.50
2226;DHT22;1119;48.288;8.726;2022-09-04T14:19:08;27.70;44.20
2226;DHT22;1119;48.288;8.726;2022-09-04T14:22:10;27.40;45.50
2226;DHT22;1119;48.288;8.726;2022-09-04T14:24:47;27.10;45.40
2226;DHT22;1119;48.288;8.726;2022-09-04T14:27:23;27.00;46.30
2226;DHT22;1119;48.288;8.726;2022-09-04T14:30:03;26.90;46.30
2226;DHT22;1119;48.288;8.726;2022-09-04T14:32:41;26.80;46.70
2226;DHT22;1119;48.288;8.726;2022-09-04T14:35:25;26.70;47.00
2226;DHT22;1119;48.288;8.726;2022-09-04T14:41:17;26.70;47.00
2226;DHT22;1119;48.288;8.726;2022-09-04T14:44:01;26.70;48.00
2226;DHT22;1119;48.288;8.726;2022-09-04T14:46:40;26.70;48.20
2226;DHT22;1119;48.288;8.726;2022-09-04T14:49:15;26.60;47.40
2226;DHT22;1119;48.288;8.726;2022-09-04T14:51:48;26.60;47.00
2226;DHT22;1119;48.288;8.726;2022-09-04T14:54:25;26.60;47.20
2226;DHT22;1119;48.288;8.726;2022-09-04T14:56:56;26.70;45.80
2226;DHT22;1119;48.288;8.726;2022-09-04T14:59:30;26.80;45.60
2226;DHT22;1119;48.288;8.726;2022-09-04T15:02:15;26.80;46.30
2226;DHT22;1119;48.288;8.726;2022-09-04T15:04:48;26.70;46.60
2226;DHT22;1119;48.288;8.726;2022-09-04T15:07:45;26.60;47.70
2226;DHT22;1119;48.288;8.726;2022-09-04T15:10:19;26.40;47.50
2226;DHT22;1119;48.288;8.726;2022-09-04T15:13:21;26.40;47.70
2226;DHT22;1119;48.288;8.726;2022-09-04T15:16:13;26.30;47.30
2226;DHT22;1119;48.288;8.726;2022-09-04T15:18:51;26.10;47.00
2226;DHT22;1119;48.288;8.726;2022-09-04T15:21:29;26.00;47.50
2226;DHT22;1119;48.288;8.726;2022-09-04T15:24:11;26.00;47.70
2226;DHT22;1119;48.288;8.726;2022-09-04T15:26:43;26.10;48.90
2226;DHT22;1119;48.288;8.726;2022-09-04T15:29:19;26.20;48.20
2226;DHT22;1119;48.288;8.726;2022-09-04T15:31:58;26.20;47.20
2226;DHT22;1119;48.288;8.726;2022-09-04T15:34:27;26.20;47.90
2226;DHT22;1119;48.288;8.726;2022-09-04T15:37:08;26.20;47.00
2226;DHT22;1119;48.288;8.726;2022-09-04T15:39:47;26.20;47.10
2226;DHT22;1119;48.288;8.726;2022-09-04T15:42:33;26.20;46.80
2226;DHT22;1119;48.288;8.726;2022-09-04T15:45:09;26.20;46.70
2226;DHT22;1119;48.288;8.726;2022-09-04T15:47:53;26.20;46.80
2226;DHT22;1119;48.288;8.726;2022-09-04T15:50:37;26.10;47.30
2226;DHT22;1119;48.288;8.726;2022-09-04T15:53:21;26.10;47.20
2226;DHT22;1119;48.288;8.726;2022-09-04T15:56:02;26.10;47.60
2226;DHT22;1119;48.288;8.726;2022-09-04T15:58:44;26.10;47.20
2226;DHT22;1119;48.288;8.726;2022-09-04T16:01:22;26.10;47.50
2226;DHT22;1119;48.288;8.726;2022-09-04T16:03:58;25.90;47.90
2226;DHT22;1119;48.288;8.726;2022-09-04T16:06:31;25.70;48.20
2226;DHT22;1119;48.288;8.726;2022-09-04T16:09:06;25.70;48.00
2226;DHT22;1119;48.288;8.726;2022-09-04T16:11:39;25.60;49.40
2226;DHT22;1119;48.288;8.726;2022-09-04T16:14:16;25.50;48.80
2226;DHT22;1119;48.288;8.726;2022-09-04T16:16:47;25.40;48.90
2226;DHT22;1119;48.288;8.726;2022-09-04T16:19:25;25.40;49.30
2226;DHT22;1119;48.288;8.726;2022-09-04T16:22:05;25.30;49.20
2226;DHT22;1119;48.288;8.726;2022-09-04T16:24:40;25.30;49.00
2226;DHT22;1119;48.288;8.726;2022-09-04T16:27:15;25.20;49.40
2226;DHT22;1119;48.288;8.726;2022-09-04T16:29:46;25.30;48.90
2226;DHT22;1119;48.288;8.726;2022-09-04T16:32:19;25.30;49.50
2226;DHT22;1119;48.288;8.726;2022-09-04T16:34:50;25.20;50.10
2226;DHT22;1119;48.288;8.726;2022-09-04T16:37:26;25.20;50.70
2226;DHT22;1119;48.288;8.726;2022-09-04T16:40:04;25.20;50.30
2226;DHT22;1119;48.288;8.726;2022-09-04T16:42:44;25.20;49.70
2226;DHT22;1119;48.288;8.726;2022-09-04T16:45:18;25.20;50.40
2226;DHT22;1119;48.288;8.726;2022-09-04T16:47:52;25.20;50.70
2226;DHT22;1119;48.288;8.726;2022-09-04T16:50:25;25.10;50.90
2226;DHT22;1119;48.288;8.726;2022-09-04T16:53:12;25.10;50.70
2226;DHT22;1119;48.288;8.726;2022-09-04T16:55:48;25.00;51.00
2226;DHT22;1119;48.288;8.726;2022-09-04T16:58:30;24.90;51.30
2226;DHT22;1119;48.288;8.726;2022-09-04T17:01:14;24.80;51.60
2226;DHT22;1119;48.288;8.726;2022-09-04T17:03:57;24.70;51.80
2226;DHT22;1119;48.288;8.726;2022-09-04T17:06:43;24.60;51.90
2226;DHT22;1119;48.288;8.726;2022-09-04T17:09:33;24.50;52.10
2226;DHT22;1119;48.288;8.726;2022-09-04T17:12:16;24.40;52.50
2226;DHT22;1119;48.288;8.726;2022-09-04T17:14:56;24.40;53.00
2226;DHT22;1119;48.288;8.726;2022-09-04T17:17:27;24.30;52.90
2226;DHT22;1119;48.288;8.726;2022-09-04T17:20:06;24.30;53.00
2226;DHT22;1119;48.288;8.726;2022-09-04T17:22:43;24.20;52.60
2226;DHT22;1119;48.288;8.726;2022-09-04T17:25:22;24.10;53.60
2226;DHT22;1119;48.288;8.726;2022-09-04T17:28:19;23.90;53.10
2226;DHT22;1119;48.288;8.726;2022-09-04T17:30:54;23.90;53.60
2226;DHT22;1119;48.288;8.726;2022-09-04T17:33:26;23.80;53.70
2226;DHT22;1119;48.288;8.726;2022-09-04T17:36:04;23.70;54.00
2226;DHT22;1119;48.288;8.726;2022-09-04T17:38:38;23.60;54.20
2226;DHT22;1119;48.288;8.726;2022-09-04T17:41:15;23.60;53.90
2226;DHT22;1119;48.288;8.726;2022-09-04T17:44:02;23.60;54.00
2226;DHT22;1119;48.288;8.726;2022-09-04T17:46:37;23.60;53.80
2226;DHT22;1119;48.288;8.726;2022-09-04T17:49:15;23.60;53.80
2226;DHT22;1119;48.288;8.726;2022-09-04T17:51:51;23.50;53.70
2226;DHT22;1119;48.288;8.726;2022-09-04T17:54:21;23.50;54.00
2226;DHT22;1119;48.288;8.726;2022-09-04T17:56:51;23.50;54.20
2226;DHT22;1119;48.288;8.726;2022-09-04T17:59:26;23.60;54.40
2226;DHT22;1119;48.288;8.726;2022-09-04T18:02:03;23.50;54.40
2226;DHT22;1119;48.288;8.726;2022-09-04T18:04:40;23.50;54.30
2226;DHT22;1119;48.288;8.726;2022-09-04T18:07:19;23.50;54.30
2226;DHT22;1119;48.288;8.726;2022-09-04T18:10:02;23.40;54.40
2226;DHT22;1119;48.288;8.726;2022-09-04T18:12:40;23.40;54.70
2226;DHT22;1119;48.288;8.726;2022-09-04T18:15:13;23.30;54.30
2226;DHT22;1119;48.288;8.726;2022-09-04T18:17:50;23.30;54.30
2226;DHT22;1119;48.288;8.726;2022-09-04T18:20:27;23.20;54.80
2226;DHT22;1119;48.288;8.726;2022-09-04T18:23:19;23.20;55.00
2226;DHT22;1119;48.288;8.726;2022-09-04T18:26:01;23.20;55.20
2226;DHT22;1119;48.288;8.726;2022-09-04T18:28:35;23.10;55.40
2226;DHT22;1119;48.288;8.726;2022-09-04T18:31:16;23.10;55.50
2226;DHT22;1119;48.288;8.726;2022-09-04T18:33:58;23.00;56.20
2226;DHT22;1119;48.288;8.726;2022-09-04T18:36:34;22.90;56.40
2226;DHT22;1119;48.288;8.726;2022-09-04T18:39:09;22.80;57.10
2226;DHT22;1119;48.288;8.726;2022-09-04T18:42:05;22.70;57.50
2226;DHT22;1119;48.288;8.726;2022-09-04T18:44:42;22.60;57.50
2226;DHT22;1119;48.288;8.726;2022-09-04T18:47:14;22.50;57.50
2226;DHT22;1119;48.288;8.726;2022-09-04T18:49:52;22.40;57.10
2226;DHT22;1119;48.288;8.726;2022-09-04T18:52:25;22.40;57.10
2226;DHT22;1119;48.288;8.726;2022-09-04T18:54:58;22.40;57.20
2226;DHT22;1119;48.288;8.726;2022-09-04T18:57:32;22.30;57.30
2226;DHT22;1119;48.288;8.726;2022-09-04T19:00:06;22.30;57.40
2226;DHT22;1119;48.288;8.726;2022-09-04T19:02:45;22.30;57.60
2226;DHT22;1119;48.288;8.726;2022-09-04T19:05:17;22.30;58.40
2226;DHT22;1119;48.288;8.726;2022-09-04T19:07:47;22.30;58.00
2226;DHT22;1119;48.288;8.726;2022-09-04T19:10:22;22.30;58.40
2226;DHT22;1119;48.288;8.726;2022-09-04T19:12:56;22.20;58.60
2226;DHT22;1119;48.288;8.726;2022-09-04T19:15:33;22.20;58.80
2226;DHT22;1119;48.288;8.726;2022-09-04T19:18:12;22.10;59.30
2226;DHT22;1119;48.288;8.726;2022-09-04T19:20:48;22.00;59.60
2226;DHT22;1119;48.288;8.726;2022-09-04T19:23:25;21.90;59.90
2226;DHT22;1119;48.288;8.726;2022-09-04T19:25:55;21.80;60.20
2226;DHT22;1119;48.288;8.726;2022-09-04T19:28:28;21.80;60.30
2226;DHT22;1119;48.288;8.726;2022-09-04T19:31:09;21.80;60.70
2226;DHT22;1119;48.288;8.726;2022-09-04T19:33:45;21.70;60.80
2226;DHT22;1119;48.288;8.726;2022-09-04T19:36:22;21.70;61.30
2226;DHT22;1119;48.288;8.726;2022-09-04T19:39:05;21.70;61.90
2226;DHT22;1119;48.288;8.726;2022-09-04T19:41:42;21.70;62.40
2226;DHT22;1119;48.288;8.726;2022-09-04T19:44:12;21.70;63.10
2226;DHT22;1119;48.288;8.726;2022-09-04T19:46:54;21.60;63.40